Faucett, Missouri
Current Conditions -  °F | °C
As of 3:53 AM on Friday 31 Oct 2014 (Local Time) from KSTJ Reporting Station
Overcast Overcast  
Wind Chill: 32°   Ceiling: 2600
Heat Index: 41°   Visibility: 10mi
Dew Point: 31°   Wind: 21mph
Humidity: 67%   Direction: 350°N
Pressure: 30.38"   Gusts: 35mph
Location:  39.6°N, 94.8°W
Report Text: KSTJ 310853Z AUTO 35018G30KT 10SM OVC026 05/M01 A3038 RMK AO2 PK WND 36030/0812 SLP287 T00501006 51038
Loading
Personal Weather Stations






























Interactive Weather Map
Tropical Storm Tracking
New forecast layout! Learn more

10-Day Weather Forecast

Advertisements
Track Severe Weather on mobile